NJE350 LPLA-TNCM
Flight info
| Callsign | NJE350 |
|---|---|
| Flight time | N/A |
| Altitude | 43000 |
| Route | INBUL DCT RKDIA M576 MNOLO |
| Aircraft | C700/M-SBDGHM1RWXY/LB2 |
Departure
| Time | 2026-04-22 10:02 |
|---|---|
| Airport | Lajes Airport (LPLA) |
Arrival
| Time | N/A |
|---|---|
| Airport | Princess Juliana International Airport (TNCM) |
| Time | Latitude | Longitude | Altitude | Speed | Heading |
|---|---|---|---|---|---|
| 2026-04-22 09:53 | 38.76596 | -27.09149 | 165 ft | 0 kts | 231° |
| 2026-04-22 09:57 | 38.76596 | -27.09150 | 165 ft | 0 kts | 231° |
| 2026-04-22 09:58 | 38.76594 | -27.09153 | 165 ft | 2 kts | 230° |
| 2026-04-22 09:58 | 38.76565 | -27.09196 | 164 ft | 11 kts | 229° |
| 2026-04-22 09:59 | 38.76535 | -27.09198 | 164 ft | 8 kts | 141° |
| 2026-04-22 09:59 | 38.76463 | -27.09124 | 165 ft | 18 kts | 142° |
| 2026-04-22 09:59 | 38.76358 | -27.09017 | 166 ft | 23 kts | 140° |
| 2026-04-22 09:59 | 38.76217 | -27.08865 | 168 ft | 29 kts | 141° |
| 2026-04-22 10:00 | 38.76052 | -27.08700 | 170 ft | 31 kts | 141° |
| 2026-04-22 10:00 | 38.75885 | -27.08525 | 171 ft | 30 kts | 141° |
| 2026-04-22 10:00 | 38.75756 | -27.08407 | 172 ft | 11 kts | 203° |
| 2026-04-22 10:00 | 38.75701 | -27.08472 | 173 ft | 12 kts | 224° |
| 2026-04-22 10:01 | 38.75680 | -27.08544 | 172 ft | 9 kts | 294° |
| 2026-04-22 10:01 | 38.75701 | -27.08576 | 172 ft | 0 kts | 323° |
| 2026-04-22 10:01 | 38.75704 | -27.08579 | 172 ft | 7 kts | 322° |
| 2026-04-22 10:02 | 38.75984 | -27.08870 | 172 ft | 97 kts | 321° |
| 2026-04-22 10:02 | 38.76615 | -27.09576 | 714 ft | 127 kts | 306° |
| 2026-04-22 10:02 | 38.77241 | -27.10435 | 1839 ft | 143 kts | 296° |
| 2026-04-22 10:02 | 38.77156 | -27.11738 | 2923 ft | 174 kts | 238° |
| 2026-04-22 10:03 | 38.76229 | -27.12911 | 4168 ft | 198 kts | 235° |
| 2026-04-22 10:03 | 38.75433 | -27.14457 | 5486 ft | 217 kts | 247° |
| 2026-04-22 10:03 | 38.74803 | -27.16318 | 6639 ft | 238 kts | 255° |
| 2026-04-22 10:03 | 38.74439 | -27.18404 | 7999 ft | 242 kts | 268° |
| 2026-04-22 10:04 | 38.74315 | -27.20491 | 9555 ft | 247 kts | 274° |
| 2026-04-22 10:04 | 38.74200 | -27.22757 | 10832 ft | 268 kts | 272° |
| 2026-04-22 10:04 | 38.74011 | -27.25249 | 11970 ft | 291 kts | 270° |
| 2026-04-22 10:04 | 38.73786 | -27.27841 | 13494 ft | 301 kts | 270° |
| 2026-04-22 10:05 | 38.73571 | -27.30570 | 14825 ft | 310 kts | 271° |
| 2026-04-22 10:05 | 38.73361 | -27.33360 | 16161 ft | 320 kts | 271° |
| 2026-04-22 10:05 | 38.73140 | -27.36241 | 17439 ft | 330 kts | 271° |
| 2026-04-22 10:05 | 38.72906 | -27.39206 | 18549 ft | 338 kts | 271° |
| 2026-04-22 10:06 | 38.72666 | -27.42243 | 19550 ft | 345 kts | 271° |
| 2026-04-22 10:06 | 38.72467 | -27.44767 | 20311 ft | 350 kts | 271° |
| 2026-04-22 10:06 | 38.72238 | -27.47691 | 21115 ft | 356 kts | 271° |
| 2026-04-22 10:06 | 38.71984 | -27.50870 | 22136 ft | 358 kts | 271° |
| 2026-04-22 10:07 | 38.71730 | -27.54073 | 23015 ft | 365 kts | 272° |
| 2026-04-22 10:07 | 38.71473 | -27.57330 | 23798 ft | 370 kts | 271° |
| 2026-04-22 10:07 | 38.71211 | -27.60588 | 24557 ft | 375 kts | 271° |
| 2026-04-22 10:07 | 38.70942 | -27.63938 | 25302 ft | 380 kts | 271° |
| 2026-04-22 10:08 | 38.70667 | -27.67334 | 26034 ft | 385 kts | 271° |
| 2026-04-22 10:08 | 38.70394 | -27.70764 | 26755 ft | 389 kts | 271° |
| 2026-04-22 10:08 | 38.70160 | -27.74251 | 27463 ft | 394 kts | 272° |
| 2026-04-22 10:08 | 38.69862 | -27.77727 | 28112 ft | 401 kts | 270° |
| 2026-04-22 10:09 | 38.69516 | -27.81278 | 28844 ft | 404 kts | 270° |
| 2026-04-22 10:09 | 38.69220 | -27.84877 | 29540 ft | 407 kts | 272° |
| 2026-04-22 10:09 | 38.68948 | -27.88506 | 30138 ft | 412 kts | 271° |
| 2026-04-22 10:09 | 38.68646 | -27.92162 | 30738 ft | 415 kts | 270° |
| 2026-04-22 10:10 | 38.68324 | -27.95878 | 31339 ft | 419 kts | 270° |
| 2026-04-22 10:10 | 38.68014 | -27.99592 | 31931 ft | 422 kts | 269° |
| 2026-04-22 10:10 | 38.67660 | -28.03349 | 32440 ft | 428 kts | 268° |
| 2026-04-22 10:10 | 38.67340 | -28.07145 | 33105 ft | 427 kts | 269° |
| 2026-04-22 10:11 | 38.67075 | -28.10920 | 33859 ft | 425 kts | 269° |
| 2026-04-22 10:11 | 38.66769 | -28.14679 | 34502 ft | 424 kts | 268° |
| 2026-04-22 10:11 | 38.66425 | -28.18419 | 35170 ft | 422 kts | 267° |
| 2026-04-22 10:11 | 38.66103 | -28.22098 | 35808 ft | 419 kts | 268° |
| 2026-04-22 10:12 | 38.65799 | -28.25808 | 36431 ft | 417 kts | 268° |
| 2026-04-22 10:12 | 38.65490 | -28.29488 | 37039 ft | 416 kts | 267° |
| 2026-04-22 10:12 | 38.65169 | -28.33153 | 37639 ft | 414 kts | 267° |
| 2026-04-22 10:12 | 38.64848 | -28.36809 | 38210 ft | 412 kts | 266° |
| 2026-04-22 10:13 | 38.64534 | -28.40442 | 38642 ft | 411 kts | 266° |
| 2026-04-22 10:13 | 38.64218 | -28.44090 | 38983 ft | 412 kts | 266° |
| 2026-04-22 10:13 | 38.63898 | -28.47731 | 39319 ft | 412 kts | 266° |
| 2026-04-22 10:13 | 38.63578 | -28.51379 | 39662 ft | 412 kts | 266° |
| 2026-04-22 10:14 | 38.63256 | -28.55021 | 39980 ft | 413 kts | 266° |
| 2026-04-22 10:14 | 38.62937 | -28.58628 | 40313 ft | 412 kts | 266° |
| 2026-04-22 10:14 | 38.62614 | -28.62270 | 40662 ft | 412 kts | 266° |
| 2026-04-22 10:14 | 38.62324 | -28.65911 | 40891 ft | 408 kts | 269° |
| 2026-04-22 10:15 | 38.62062 | -28.69533 | 41058 ft | 412 kts | 265° |
| 2026-04-22 10:15 | 38.61644 | -28.73175 | 41306 ft | 414 kts | 264° |
| 2026-04-22 10:15 | 38.61254 | -28.76830 | 41676 ft | 412 kts | 266° |
| 2026-04-22 10:15 | 38.60968 | -28.80476 | 41927 ft | 413 kts | 267° |
| 2026-04-22 10:16 | 38.60677 | -28.84143 | 42141 ft | 415 kts | 266° |
| 2026-04-22 10:16 | 38.60326 | -28.87751 | 42469 ft | 414 kts | 265° |
| 2026-04-22 10:16 | 38.59969 | -28.91403 | 42777 ft | 413 kts | 266° |
| 2026-04-22 10:16 | 38.59642 | -28.95057 | 43023 ft | 414 kts | 266° |
| 2026-04-22 10:17 | 38.59319 | -28.98717 | 43154 ft | 416 kts | 266° |
| 2026-04-22 10:17 | 38.58978 | -29.02386 | 43455 ft | 415 kts | 266° |
| 2026-04-22 10:17 | 38.58633 | -29.06037 | 43787 ft | 413 kts | 266° |
| 2026-04-22 10:17 | 38.58291 | -29.09700 | 43955 ft | 414 kts | 265° |
| 2026-04-22 10:18 | 38.57954 | -29.13366 | 44139 ft | 416 kts | 266° |
| 2026-04-22 10:18 | 38.57612 | -29.17032 | 44368 ft | 416 kts | 266° |
| 2026-04-22 10:18 | 38.57270 | -29.20656 | 44626 ft | 414 kts | 265° |
| 2026-04-22 10:18 | 38.56924 | -29.24315 | 44692 ft | 417 kts | 265° |
| 2026-04-22 10:19 | 38.56220 | -29.31760 | 44706 ft | 425 kts | 266° |
| 2026-04-22 10:19 | 38.55496 | -29.39336 | 44718 ft | 433 kts | 265° |
| 2026-04-22 10:20 | 38.54753 | -29.47062 | 44717 ft | 441 kts | 266° |
| 2026-04-22 10:20 | 38.53997 | -29.54909 | 44708 ft | 448 kts | 265° |
| 2026-04-22 10:21 | 38.53226 | -29.62804 | 44729 ft | 453 kts | 265° |
| 2026-04-22 10:21 | 38.52437 | -29.70837 | 44733 ft | 458 kts | 266° |
| 2026-04-22 10:22 | 38.51638 | -29.78928 | 44737 ft | 460 kts | 265° |
| 2026-04-22 10:22 | 38.50827 | -29.87060 | 44726 ft | 462 kts | 265° |
| 2026-04-22 10:23 | 38.50013 | -29.95188 | 44748 ft | 461 kts | 265° |
| 2026-04-22 10:23 | 38.48349 | -30.03096 | 44742 ft | 469 kts | 250° |
| 2026-04-22 10:24 | 38.45532 | -30.10642 | 44754 ft | 471 kts | 249° |
| 2026-04-22 10:24 | 38.42712 | -30.18223 | 44755 ft | 473 kts | 248° |
| 2026-04-22 10:25 | 38.39857 | -30.25763 | 44760 ft | 473 kts | 248° |
| 2026-04-22 10:25 | 38.37185 | -30.33405 | 44785 ft | 469 kts | 251° |
| 2026-04-22 10:26 | 38.33992 | -30.40685 | 44765 ft | 474 kts | 244° |
| 2026-04-22 10:26 | 38.31261 | -30.48287 | 44778 ft | 470 kts | 251° |
| 2026-04-22 10:27 | 38.28539 | -30.55871 | 44786 ft | 474 kts | 245° |
| 2026-04-22 10:27 | 38.25562 | -30.63345 | 44799 ft | 472 kts | 249° |
| 2026-04-22 10:28 | 38.22785 | -30.70872 | 44783 ft | 472 kts | 246° |
| 2026-04-22 10:28 | 38.19851 | -30.78351 | 44796 ft | 471 kts | 248° |
| 2026-04-22 10:29 | 38.17015 | -30.85869 | 44808 ft | 472 kts | 247° |
| 2026-04-22 10:29 | 38.14100 | -30.93364 | 44808 ft | 472 kts | 248° |
| 2026-04-22 10:30 | 38.11227 | -31.00868 | 44812 ft | 473 kts | 247° |
| 2026-04-22 10:30 | 38.08333 | -31.08320 | 44813 ft | 473 kts | 247° |
| 2026-04-22 10:31 | 38.05435 | -31.15818 | 44815 ft | 473 kts | 247° |
| 2026-04-22 10:31 | 38.02517 | -31.23320 | 44827 ft | 474 kts | 247° |
| 2026-04-22 10:32 | 37.99596 | -31.30826 | 44837 ft | 474 kts | 247° |
| 2026-04-22 10:32 | 37.96672 | -31.38313 | 44837 ft | 474 kts | 247° |
| 2026-04-22 10:33 | 37.94239 | -31.44535 | 44840 ft | 473 kts | 247° |
| 2026-04-22 10:33 | 37.90829 | -31.53232 | 44834 ft | 473 kts | 247° |
| 2026-04-22 10:34 | 37.88392 | -31.59429 | 44843 ft | 473 kts | 247° |
| 2026-04-22 10:34 | 37.85455 | -31.66883 | 44848 ft | 472 kts | 247° |
| 2026-04-22 10:35 | 37.82523 | -31.74310 | 44847 ft | 471 kts | 247° |
| 2026-04-22 10:35 | 37.79593 | -31.81712 | 44853 ft | 470 kts | 247° |
| 2026-04-22 10:36 | 37.76653 | -31.89121 | 44858 ft | 471 kts | 247° |
| 2026-04-22 10:36 | 37.73705 | -31.96534 | 44862 ft | 473 kts | 247° |
| 2026-04-22 10:37 | 37.69277 | -32.07633 | 44855 ft | 474 kts | 247° |
| 2026-04-22 10:38 | 37.66296 | -32.15085 | 44876 ft | 473 kts | 247° |
| 2026-04-22 10:38 | 37.63322 | -32.22498 | 44876 ft | 473 kts | 247° |
| 2026-04-22 10:39 | 37.60368 | -32.29848 | 44887 ft | 472 kts | 247° |
| 2026-04-22 10:39 | 37.57393 | -32.37232 | 44882 ft | 470 kts | 247° |
| 2026-04-22 10:40 | 37.54438 | -32.44556 | 44885 ft | 470 kts | 247° |
| 2026-04-22 10:40 | 37.51459 | -32.51909 | 44886 ft | 470 kts | 247° |
| 2026-04-22 10:41 | 37.48480 | -32.59250 | 44888 ft | 470 kts | 247° |
| 2026-04-22 10:41 | 37.45508 | -32.66559 | 44899 ft | 468 kts | 247° |
| 2026-04-22 10:42 | 37.42531 | -32.73864 | 44903 ft | 468 kts | 247° |
| 2026-04-22 10:42 | 37.39574 | -32.81103 | 44903 ft | 468 kts | 247° |
| 2026-04-22 10:43 | 37.36586 | -32.88399 | 44909 ft | 468 kts | 247° |
| 2026-04-22 10:43 | 37.33605 | -32.95662 | 44914 ft | 466 kts | 247° |
| 2026-04-22 10:44 | 37.30626 | -33.02904 | 44914 ft | 466 kts | 247° |
| 2026-04-22 10:44 | 37.27662 | -33.10092 | 44922 ft | 466 kts | 247° |
| 2026-04-22 10:45 | 37.24667 | -33.17338 | 44928 ft | 465 kts | 247° |
| 2026-04-22 10:45 | 37.21683 | -33.24543 | 44928 ft | 464 kts | 247° |
| 2026-04-22 10:46 | 37.18715 | -33.31693 | 44930 ft | 464 kts | 247° |
| 2026-04-22 10:46 | 37.15722 | -33.38887 | 44933 ft | 464 kts | 247° |
| 2026-04-22 10:47 | 37.12731 | -33.46060 | 44934 ft | 463 kts | 247° |
| 2026-04-22 10:47 | 37.09763 | -33.53165 | 44936 ft | 463 kts | 247° |
| 2026-04-22 10:48 | 37.06772 | -33.60306 | 44945 ft | 463 kts | 247° |
| 2026-04-22 10:48 | 37.03774 | -33.67449 | 44943 ft | 463 kts | 247° |
| 2026-04-22 10:49 | 37.00806 | -33.74499 | 44959 ft | 460 kts | 248° |
| 2026-04-22 10:49 | 36.97836 | -33.81549 | 44956 ft | 460 kts | 248° |
| 2026-04-22 10:50 | 36.94840 | -33.88637 | 44951 ft | 460 kts | 248° |
| 2026-04-22 10:50 | 36.91842 | -33.95719 | 44953 ft | 461 kts | 248° |
| 2026-04-22 10:51 | 36.88835 | -34.02804 | 44958 ft | 461 kts | 248° |
| 2026-04-22 10:51 | 36.85843 | -34.09839 | 44960 ft | 461 kts | 248° |
| 2026-04-22 10:52 | 36.82825 | -34.16921 | 44966 ft | 461 kts | 247° |
| 2026-04-22 10:52 | 36.79802 | -34.23998 | 44968 ft | 460 kts | 248° |
| 2026-04-22 10:53 | 36.76805 | -34.30996 | 44966 ft | 460 kts | 248° |
| 2026-04-22 10:53 | 36.73805 | -34.37990 | 44967 ft | 460 kts | 248° |
| 2026-04-22 10:54 | 36.70777 | -34.45032 | 44972 ft | 460 kts | 248° |
| 2026-04-22 10:54 | 36.67743 | -34.52073 | 44974 ft | 460 kts | 248° |
| 2026-04-22 10:55 | 36.64714 | -34.59091 | 44979 ft | 460 kts | 248° |
| 2026-04-22 10:55 | 36.61689 | -34.66083 | 44980 ft | 461 kts | 247° |
| 2026-04-22 10:56 | 36.58639 | -34.73116 | 44982 ft | 462 kts | 247° |
| 2026-04-22 10:56 | 36.55576 | -34.80164 | 44987 ft | 461 kts | 248° |
| 2026-04-22 10:57 | 36.52542 | -34.87130 | 44988 ft | 461 kts | 248° |
| 2026-04-22 10:57 | 36.49481 | -34.94142 | 44989 ft | 460 kts | 247° |
| 2026-04-22 10:58 | 36.46418 | -35.01145 | 44992 ft | 459 kts | 247° |
| 2026-04-22 10:58 | 36.43365 | -35.08113 | 44991 ft | 459 kts | 247° |
| 2026-04-22 10:59 | 36.40304 | -35.15084 | 44999 ft | 460 kts | 247° |
| 2026-04-22 10:59 | 36.37257 | -35.22006 | 44999 ft | 460 kts | 247° |
| 2026-04-22 11:00 | 36.34189 | -35.28960 | 45000 ft | 459 kts | 247° |
| 2026-04-22 11:00 | 36.31116 | -35.35913 | 45002 ft | 459 kts | 247° |
| 2026-04-22 11:01 | 36.28043 | -35.42851 | 45002 ft | 458 kts | 247° |
| 2026-04-22 11:01 | 36.24985 | -35.49741 | 45001 ft | 458 kts | 247° |
| 2026-04-22 11:02 | 36.21913 | -35.56648 | 45003 ft | 458 kts | 247° |
| 2026-04-22 11:02 | 36.18834 | -35.63556 | 45003 ft | 458 kts | 247° |
| 2026-04-22 11:03 | 36.15750 | -35.70462 | 45006 ft | 457 kts | 247° |
| 2026-04-22 11:03 | 36.12671 | -35.77340 | 45012 ft | 456 kts | 247° |
| 2026-04-22 11:04 | 36.09592 | -35.84209 | 45005 ft | 456 kts | 247° |
| 2026-04-22 11:04 | 36.06535 | -35.91011 | 45007 ft | 455 kts | 246° |
| 2026-04-22 11:05 | 36.03461 | -35.97839 | 45012 ft | 454 kts | 246° |
| 2026-04-22 11:05 | 36.00381 | -36.04664 | 45012 ft | 455 kts | 246° |
| 2026-04-22 11:06 | 35.97287 | -36.11507 | 45014 ft | 457 kts | 246° |
| 2026-04-22 11:06 | 35.94174 | -36.18379 | 45019 ft | 459 kts | 246° |
| 2026-04-22 11:07 | 35.91082 | -36.25190 | 45023 ft | 457 kts | 246° |
| 2026-04-22 11:07 | 35.87974 | -36.32023 | 45014 ft | 456 kts | 246° |
| 2026-04-22 11:08 | 35.84865 | -36.38842 | 45013 ft | 456 kts | 246° |
| 2026-04-22 11:08 | 35.81751 | -36.45660 | 45015 ft | 456 kts | 246° |
| 2026-04-22 11:09 | 35.78632 | -36.52475 | 45015 ft | 457 kts | 246° |
| 2026-04-22 11:09 | 35.75505 | -36.59292 | 45018 ft | 457 kts | 246° |
| 2026-04-22 11:10 | 35.72372 | -36.66111 | 45019 ft | 457 kts | 246° |
| 2026-04-22 11:10 | 35.69256 | -36.72880 | 45019 ft | 457 kts | 246° |
| 2026-04-22 11:11 | 35.66113 | -36.79693 | 45024 ft | 458 kts | 246° |
| 2026-04-22 11:11 | 35.62962 | -36.86507 | 45024 ft | 458 kts | 246° |
| 2026-04-22 11:12 | 35.59800 | -36.93332 | 45031 ft | 458 kts | 246° |
| 2026-04-22 11:12 | 35.56666 | -37.00085 | 45012 ft | 457 kts | 246° |
| 2026-04-22 11:13 | 35.53502 | -37.06890 | 45022 ft | 458 kts | 246° |
| 2026-04-22 11:13 | 35.50329 | -37.13699 | 45023 ft | 460 kts | 245° |
| 2026-04-22 11:14 | 35.47147 | -37.20512 | 45024 ft | 459 kts | 245° |
| 2026-04-22 11:14 | 35.43995 | -37.27249 | 45025 ft | 459 kts | 245° |
| 2026-04-22 11:15 | 35.40807 | -37.34051 | 45025 ft | 461 kts | 245° |
| 2026-04-22 11:15 | 35.37605 | -37.40866 | 45025 ft | 460 kts | 245° |
| 2026-04-22 11:16 | 35.34413 | -37.47649 | 45006 ft | 459 kts | 245° |
| 2026-04-22 11:16 | 35.31222 | -37.54416 | 45022 ft | 459 kts | 245° |
| 2026-04-22 11:17 | 35.28036 | -37.61158 | 45020 ft | 459 kts | 245° |
| 2026-04-22 11:17 | 35.24827 | -37.67937 | 45022 ft | 460 kts | 245° |
| 2026-04-22 11:18 | 35.21615 | -37.74705 | 45025 ft | 459 kts | 245° |
| 2026-04-22 11:18 | 35.18426 | -37.81414 | 45026 ft | 459 kts | 245° |
| 2026-04-22 11:19 | 35.15214 | -37.88159 | 45025 ft | 459 kts | 245° |
| 2026-04-22 11:19 | 35.11991 | -37.94914 | 45026 ft | 459 kts | 245° |
| 2026-04-22 11:20 | 35.09320 | -38.00503 | 45024 ft | 457 kts | 245° |
| 2026-04-22 11:20 | 35.06116 | -38.07195 | 45026 ft | 457 kts | 245° |
| 2026-04-22 11:21 | 35.02380 | -38.14978 | 45030 ft | 458 kts | 245° |
| 2026-04-22 11:21 | 34.99698 | -38.20557 | 45026 ft | 456 kts | 244° |
| 2026-04-22 11:22 | 34.96489 | -38.27219 | 45027 ft | 455 kts | 244° |
| 2026-04-22 11:22 | 34.93284 | -38.33861 | 45027 ft | 455 kts | 244° |
| 2026-04-22 11:23 | 34.90070 | -38.40508 | 45033 ft | 455 kts | 244° |
| 2026-04-22 11:23 | 34.86856 | -38.47145 | 45037 ft | 454 kts | 244° |
| 2026-04-22 11:24 | 34.83656 | -38.53740 | 45037 ft | 455 kts | 244° |
| 2026-04-22 11:24 | 34.80426 | -38.60381 | 45041 ft | 456 kts | 244° |
| 2026-04-22 11:25 | 34.77189 | -38.67024 | 45028 ft | 456 kts | 244° |
| 2026-04-22 11:25 | 34.73951 | -38.73659 | 45042 ft | 456 kts | 244° |
| 2026-04-22 11:26 | 34.70709 | -38.80287 | 45043 ft | 456 kts | 244° |
| 2026-04-22 11:26 | 34.67480 | -38.86880 | 45043 ft | 457 kts | 244° |
| 2026-04-22 11:27 | 34.64223 | -38.93514 | 45044 ft | 457 kts | 244° |
| 2026-04-22 11:27 | 34.60964 | -39.00140 | 45050 ft | 456 kts | 244° |
| 2026-04-22 11:28 | 34.57701 | -39.06761 | 45056 ft | 456 kts | 244° |
| 2026-04-22 11:28 | 34.54435 | -39.13379 | 45051 ft | 456 kts | 243° |
| 2026-04-22 11:29 | 34.51171 | -39.19981 | 45055 ft | 457 kts | 243° |
| 2026-04-22 11:29 | 34.47894 | -39.26591 | 45056 ft | 458 kts | 243° |
| 2026-04-22 11:30 | 34.44626 | -39.33174 | 45060 ft | 459 kts | 243° |
| 2026-04-22 11:30 | 34.41338 | -39.39785 | 45063 ft | 457 kts | 243° |
| 2026-04-22 11:31 | 34.38056 | -39.46373 | 45062 ft | 456 kts | 243° |
| 2026-04-22 11:31 | 34.34770 | -39.52956 | 45061 ft | 456 kts | 243° |
| 2026-04-22 11:32 | 34.31506 | -39.59483 | 45069 ft | 455 kts | 243° |
| 2026-04-22 11:32 | 34.28218 | -39.66043 | 45066 ft | 454 kts | 243° |
| 2026-04-22 11:33 | 34.24939 | -39.72576 | 45067 ft | 454 kts | 243° |
| 2026-04-22 11:33 | 34.21658 | -39.79099 | 45069 ft | 454 kts | 243° |
| 2026-04-22 11:34 | 34.18402 | -39.85562 | 45076 ft | 454 kts | 243° |
| 2026-04-22 11:34 | 34.15114 | -39.92078 | 45074 ft | 454 kts | 243° |
| 2026-04-22 11:35 | 34.11812 | -39.98607 | 45075 ft | 455 kts | 243° |
| 2026-04-22 11:35 | 34.08504 | -40.05137 | 45086 ft | 455 kts | 243° |
| 2026-04-22 11:36 | 34.05200 | -40.11648 | 45075 ft | 454 kts | 243° |
| 2026-04-22 11:36 | 34.01918 | -40.18101 | 45071 ft | 453 kts | 243° |
| 2026-04-22 11:37 | 33.98621 | -40.24575 | 45080 ft | 452 kts | 243° |
| 2026-04-22 11:37 | 33.95328 | -40.31029 | 45077 ft | 452 kts | 243° |
| 2026-04-22 11:38 | 33.92021 | -40.37497 | 45079 ft | 454 kts | 243° |
| 2026-04-22 11:38 | 33.87054 | -40.47194 | 45085 ft | 456 kts | 243° |
| 2026-04-22 11:39 | 33.83728 | -40.53668 | 45080 ft | 453 kts | 243° |
| 2026-04-22 11:39 | 33.80423 | -40.60094 | 45087 ft | 450 kts | 243° |
| 2026-04-22 11:40 | 33.77121 | -40.66502 | 45087 ft | 452 kts | 243° |
| 2026-04-22 11:40 | 33.73803 | -40.72929 | 45091 ft | 452 kts | 243° |
| 2026-04-22 11:41 | 33.70488 | -40.79340 | 45087 ft | 452 kts | 243° |
| 2026-04-22 11:41 | 33.67160 | -40.85762 | 45089 ft | 452 kts | 243° |
| 2026-04-22 11:42 | 33.63852 | -40.92136 | 45081 ft | 452 kts | 243° |
| 2026-04-22 11:42 | 33.60533 | -40.98521 | 45090 ft | 449 kts | 243° |
| 2026-04-22 11:43 | 33.57223 | -41.04879 | 45089 ft | 449 kts | 243° |
| 2026-04-22 11:43 | 33.53919 | -41.11207 | 45092 ft | 449 kts | 243° |
| 2026-04-22 11:44 | 33.50597 | -41.17566 | 45099 ft | 449 kts | 243° |
| 2026-04-22 11:44 | 33.47279 | -41.23904 | 45100 ft | 449 kts | 243° |
| 2026-04-22 11:45 | 33.43962 | -41.30229 | 45095 ft | 448 kts | 243° |
| 2026-04-22 11:45 | 33.40660 | -41.36514 | 45097 ft | 447 kts | 243° |
| 2026-04-22 11:46 | 33.37341 | -41.42821 | 45095 ft | 447 kts | 243° |
| 2026-04-22 11:46 | 33.34033 | -41.49094 | 45094 ft | 449 kts | 243° |
| 2026-04-22 11:47 | 33.30697 | -41.55411 | 45096 ft | 450 kts | 243° |
| 2026-04-22 11:47 | 33.27359 | -41.61720 | 45098 ft | 447 kts | 243° |
| 2026-04-22 11:48 | 33.24039 | -41.67989 | 45102 ft | 446 kts | 243° |
| 2026-04-22 11:48 | 33.20715 | -41.74250 | 45099 ft | 445 kts | 243° |
| 2026-04-22 11:49 | 33.17399 | -41.80485 | 45101 ft | 444 kts | 243° |
| 2026-04-22 11:49 | 33.14111 | -41.86658 | 45100 ft | 443 kts | 243° |
| 2026-04-22 11:50 | 33.10798 | -41.92870 | 45099 ft | 443 kts | 243° |
| 2026-04-22 11:50 | 33.07476 | -41.99086 | 45090 ft | 443 kts | 243° |
| 2026-04-22 11:51 | 33.04168 | -42.05266 | 45102 ft | 442 kts | 243° |
| 2026-04-22 11:51 | 33.00876 | -42.11406 | 45102 ft | 442 kts | 243° |
| 2026-04-22 11:52 | 32.97562 | -42.17575 | 45102 ft | 442 kts | 243° |
| 2026-04-22 11:52 | 32.94250 | -42.23731 | 45103 ft | 440 kts | 243° |
| 2026-04-22 11:53 | 32.90947 | -42.29863 | 45102 ft | 439 kts | 243° |
| 2026-04-22 11:53 | 32.87639 | -42.35990 | 45101 ft | 439 kts | 243° |
| 2026-04-22 11:54 | 32.84329 | -42.42111 | 45105 ft | 438 kts | 243° |
| 2026-04-22 11:54 | 32.81062 | -42.48148 | 45105 ft | 437 kts | 243° |
| 2026-04-22 11:55 | 32.77771 | -42.54215 | 45105 ft | 437 kts | 243° |
| 2026-04-22 11:55 | 32.74472 | -42.60285 | 45104 ft | 437 kts | 243° |
| 2026-04-22 11:56 | 32.71172 | -42.66348 | 45106 ft | 435 kts | 243° |
| 2026-04-22 11:56 | 32.67889 | -42.72373 | 45104 ft | 434 kts | 243° |
| 2026-04-22 11:57 | 32.64605 | -42.78386 | 45109 ft | 434 kts | 243° |
| 2026-04-22 11:57 | 32.61347 | -42.84345 | 45104 ft | 432 kts | 243° |
| 2026-04-22 11:58 | 32.58079 | -42.90315 | 45100 ft | 431 kts | 243° |
| 2026-04-22 11:58 | 32.54808 | -42.96276 | 45102 ft | 431 kts | 243° |
| 2026-04-22 11:59 | 32.51530 | -43.02242 | 45101 ft | 432 kts | 243° |
| 2026-04-22 11:59 | 32.48254 | -43.08196 | 45105 ft | 430 kts | 243° |
| 2026-04-22 12:00 | 32.45000 | -43.14105 | 45106 ft | 430 kts | 243° |
| 2026-04-22 12:00 | 32.41721 | -43.20037 | 45104 ft | 430 kts | 243° |
| 2026-04-22 12:01 | 32.38443 | -43.25969 | 45103 ft | 430 kts | 243° |
| 2026-04-22 12:01 | 32.35164 | -43.31888 | 45106 ft | 430 kts | 243° |
| 2026-04-22 12:02 | 32.31882 | -43.37806 | 45102 ft | 430 kts | 243° |
| 2026-04-22 12:02 | 32.28615 | -43.43686 | 45094 ft | 430 kts | 243° |
| 2026-04-22 12:03 | 32.25338 | -43.49578 | 45104 ft | 428 kts | 243° |
| 2026-04-22 12:03 | 32.22059 | -43.55461 | 45102 ft | 428 kts | 243° |
| 2026-04-22 12:04 | 32.18777 | -43.61340 | 45106 ft | 428 kts | 243° |
| 2026-04-22 12:04 | 32.15520 | -43.67167 | 45107 ft | 427 kts | 243° |
| 2026-04-22 12:05 | 32.12247 | -43.73014 | 45108 ft | 427 kts | 243° |
| 2026-04-22 12:05 | 32.08970 | -43.78861 | 45103 ft | 427 kts | 243° |
| 2026-04-22 12:06 | 32.05687 | -43.84705 | 45103 ft | 426 kts | 243° |
| 2026-04-22 12:06 | 32.02970 | -43.89537 | 45101 ft | 426 kts | 243° |
| 2026-04-22 12:07 | 31.99694 | -43.95353 | 45103 ft | 426 kts | 243° |
| 2026-04-22 12:07 | 31.96408 | -44.01179 | 45099 ft | 426 kts | 243° |
| 2026-04-22 12:08 | 31.93124 | -44.06995 | 45100 ft | 426 kts | 243° |
| 2026-04-22 12:08 | 31.89838 | -44.12804 | 45100 ft | 426 kts | 243° |
| 2026-04-22 12:09 | 31.86573 | -44.18567 | 45097 ft | 425 kts | 243° |
| 2026-04-22 12:09 | 31.83292 | -44.24349 | 45097 ft | 423 kts | 243° |
| 2026-04-22 12:10 | 31.80015 | -44.30116 | 45096 ft | 424 kts | 243° |
| 2026-04-22 12:10 | 31.76740 | -44.35871 | 45096 ft | 427 kts | 243° |
| 2026-04-22 12:11 | 31.73425 | -44.41685 | 45102 ft | 427 kts | 243° |
| 2026-04-22 12:11 | 31.70128 | -44.47458 | 45091 ft | 424 kts | 243° |
| 2026-04-22 12:12 | 31.66843 | -44.53207 | 45089 ft | 424 kts | 243° |
| 2026-04-22 12:12 | 31.63572 | -44.58919 | 45090 ft | 424 kts | 243° |
| 2026-04-22 12:13 | 31.60285 | -44.64652 | 45091 ft | 423 kts | 243° |
| 2026-04-22 12:13 | 31.56998 | -44.70376 | 45087 ft | 423 kts | 243° |
| 2026-04-22 12:14 | 31.53711 | -44.76093 | 45090 ft | 423 kts | 243° |
| 2026-04-22 12:14 | 31.50414 | -44.81818 | 45092 ft | 423 kts | 243° |
| 2026-04-22 12:15 | 31.47111 | -44.87542 | 45087 ft | 424 kts | 242° |
| 2026-04-22 12:15 | 31.43817 | -44.93247 | 45088 ft | 426 kts | 242° |
| 2026-04-22 12:16 | 31.40487 | -44.99001 | 45092 ft | 426 kts | 242° |
| 2026-04-22 12:16 | 31.37163 | -45.04740 | 45099 ft | 425 kts | 242° |
| 2026-04-22 12:17 | 31.33849 | -45.10450 | 45090 ft | 423 kts | 242° |
| 2026-04-22 12:17 | 31.30558 | -45.16114 | 45086 ft | 422 kts | 242° |
| 2026-04-22 12:18 | 31.27252 | -45.21794 | 45100 ft | 422 kts | 242° |
| 2026-04-22 12:18 | 31.23939 | -45.27480 | 45096 ft | 424 kts | 242° |
| 2026-04-22 12:19 | 31.20615 | -45.33174 | 45079 ft | 425 kts | 242° |
| 2026-04-22 12:19 | 31.17276 | -45.38889 | 45083 ft | 426 kts | 242° |
| 2026-04-22 12:20 | 31.13950 | -45.44568 | 45082 ft | 424 kts | 242° |
| 2026-04-22 12:20 | 31.10624 | -45.50244 | 45082 ft | 422 kts | 242° |
| 2026-04-22 12:21 | 31.07297 | -45.55913 | 45079 ft | 424 kts | 242° |
| 2026-04-22 12:21 | 31.03956 | -45.61596 | 45085 ft | 425 kts | 242° |
| 2026-04-22 12:22 | 31.00631 | -45.67243 | 45085 ft | 425 kts | 242° |
| 2026-04-22 12:22 | 30.97289 | -45.72913 | 45080 ft | 424 kts | 242° |
| 2026-04-22 12:23 | 30.93936 | -45.78592 | 45087 ft | 424 kts | 241° |
| 2026-04-22 12:23 | 30.90592 | -45.84246 | 45087 ft | 423 kts | 241° |
| 2026-04-22 12:24 | 30.87253 | -45.89884 | 45079 ft | 422 kts | 241° |
| 2026-04-22 12:24 | 30.83939 | -45.95474 | 45078 ft | 422 kts | 241° |
| 2026-04-22 12:25 | 30.80599 | -46.01099 | 45081 ft | 422 kts | 241° |
| 2026-04-22 12:25 | 30.77261 | -46.06713 | 45080 ft | 421 kts | 241° |
| 2026-04-22 12:26 | 30.73928 | -46.12310 | 45080 ft | 422 kts | 241° |
| 2026-04-22 12:26 | 30.70595 | -46.17900 | 45081 ft | 423 kts | 241° |
| 2026-04-22 12:27 | 30.67235 | -46.23525 | 45083 ft | 423 kts | 241° |
| 2026-04-22 12:27 | 30.63872 | -46.29150 | 45079 ft | 422 kts | 241° |
| 2026-04-22 12:28 | 30.60533 | -46.34724 | 45072 ft | 422 kts | 241° |
| 2026-04-22 12:28 | 30.57178 | -46.40321 | 45075 ft | 421 kts | 240° |
| 2026-04-22 12:29 | 30.53838 | -46.45882 | 45076 ft | 419 kts | 240° |
| 2026-04-22 12:29 | 30.50497 | -46.51440 | 45074 ft | 421 kts | 240° |
| 2026-04-22 12:30 | 30.45453 | -46.59811 | 45080 ft | 422 kts | 240° |
| 2026-04-22 12:31 | 30.42119 | -46.65335 | 45082 ft | 419 kts | 240° |
| 2026-04-22 12:31 | 30.38771 | -46.70876 | 45071 ft | 420 kts | 240° |
| 2026-04-22 12:32 | 30.35405 | -46.76439 | 45069 ft | 422 kts | 240° |
| 2026-04-22 12:32 | 30.30341 | -46.84790 | 45071 ft | 422 kts | 240° |
| 2026-04-22 12:33 | 30.26980 | -46.90326 | 45065 ft | 422 kts | 240° |
| 2026-04-22 12:33 | 30.23594 | -46.95893 | 45068 ft | 423 kts | 240° |
| 2026-04-22 12:34 | 30.20200 | -47.01466 | 45079 ft | 422 kts | 240° |
| 2026-04-22 12:34 | 30.16833 | -47.06988 | 45074 ft | 419 kts | 240° |
| 2026-04-22 12:35 | 30.13495 | -47.12457 | 45069 ft | 419 kts | 240° |
| 2026-04-22 12:35 | 30.10123 | -47.17972 | 45068 ft | 421 kts | 240° |
| 2026-04-22 12:36 | 30.06741 | -47.23492 | 45068 ft | 421 kts | 239° |
| 2026-04-22 12:36 | 30.03361 | -47.29007 | 45070 ft | 420 kts | 239° |
| 2026-04-22 12:37 | 29.99979 | -47.34515 | 45060 ft | 421 kts | 239° |
| 2026-04-22 12:37 | 29.96584 | -47.40039 | 45060 ft | 422 kts | 239° |
| 2026-04-22 12:38 | 29.93205 | -47.45525 | 45059 ft | 421 kts | 239° |
| 2026-04-22 12:38 | 29.89816 | -47.51026 | 45057 ft | 420 kts | 239° |
| 2026-04-22 12:39 | 29.84731 | -47.59260 | 45059 ft | 421 kts | 239° |
| 2026-04-22 12:40 | 29.81327 | -47.64761 | 45062 ft | 421 kts | 239° |
| 2026-04-22 12:40 | 29.77930 | -47.70246 | 45063 ft | 420 kts | 239° |
| 2026-04-22 12:41 | 29.74548 | -47.75700 | 45056 ft | 421 kts | 239° |
| 2026-04-22 12:41 | 29.71137 | -47.81193 | 45057 ft | 422 kts | 239° |
| 2026-04-22 12:42 | 29.67720 | -47.86687 | 45058 ft | 422 kts | 239° |
| 2026-04-22 12:42 | 29.64321 | -47.92145 | 45059 ft | 421 kts | 239° |
| 2026-04-22 12:43 | 29.60903 | -47.97630 | 45057 ft | 422 kts | 239° |
| 2026-04-22 12:43 | 29.57475 | -48.03119 | 45059 ft | 423 kts | 239° |
| 2026-04-22 12:44 | 29.54042 | -48.08608 | 45060 ft | 422 kts | 239° |
| 2026-04-22 12:44 | 29.50643 | -48.14038 | 45047 ft | 420 kts | 238° |
| 2026-04-22 12:45 | 29.47226 | -48.19489 | 45056 ft | 421 kts | 238° |
| 2026-04-22 12:45 | 29.43796 | -48.24955 | 45056 ft | 422 kts | 238° |
| 2026-04-22 12:46 | 29.40359 | -48.30423 | 45053 ft | 422 kts | 238° |
| 2026-04-22 12:46 | 29.36926 | -48.35878 | 45055 ft | 421 kts | 238° |
| 2026-04-22 12:47 | 29.33490 | -48.41329 | 45052 ft | 422 kts | 238° |
| 2026-04-22 12:47 | 29.30060 | -48.46764 | 45057 ft | 422 kts | 238° |
| 2026-04-22 12:48 | 29.26615 | -48.52218 | 45059 ft | 421 kts | 238° |
| 2026-04-22 12:48 | 29.23177 | -48.57651 | 45056 ft | 420 kts | 238° |
| 2026-04-22 12:49 | 29.19740 | -48.63077 | 45056 ft | 422 kts | 238° |
| 2026-04-22 12:49 | 29.16285 | -48.68521 | 45068 ft | 422 kts | 238° |
| 2026-04-22 12:50 | 29.12859 | -48.73917 | 45060 ft | 421 kts | 238° |
| 2026-04-22 12:50 | 29.09413 | -48.79335 | 45055 ft | 421 kts | 238° |
| 2026-04-22 12:51 | 29.05945 | -48.84783 | 45054 ft | 424 kts | 238° |
| 2026-04-22 12:51 | 29.02469 | -48.90232 | 45053 ft | 424 kts | 238° |
| 2026-04-22 12:52 | 28.99012 | -48.95646 | 45057 ft | 424 kts | 238° |
| 2026-04-22 12:52 | 28.95526 | -49.01097 | 45045 ft | 424 kts | 238° |
| 2026-04-22 12:53 | 28.92040 | -49.06544 | 45059 ft | 425 kts | 238° |
| 2026-04-22 12:53 | 28.88575 | -49.11949 | 45061 ft | 423 kts | 237° |
| 2026-04-22 12:54 | 28.85663 | -49.16487 | 45063 ft | 422 kts | 237° |
| 2026-04-22 12:54 | 28.82194 | -49.21887 | 45061 ft | 422 kts | 237° |
| 2026-04-22 12:55 | 28.78748 | -49.27244 | 45054 ft | 421 kts | 237° |
| 2026-04-22 12:55 | 28.75278 | -49.32630 | 45057 ft | 420 kts | 237° |
| 2026-04-22 12:56 | 28.71817 | -49.37995 | 45061 ft | 420 kts | 237° |
| 2026-04-22 12:56 | 28.68347 | -49.43368 | 45061 ft | 421 kts | 237° |
| 2026-04-22 12:57 | 28.64867 | -49.48751 | 45051 ft | 423 kts | 237° |
| 2026-04-22 12:57 | 28.61369 | -49.54155 | 45057 ft | 423 kts | 237° |
| 2026-04-22 12:58 | 28.57900 | -49.59502 | 45058 ft | 421 kts | 237° |
| 2026-04-22 12:58 | 28.54426 | -49.64857 | 45055 ft | 419 kts | 237° |
| 2026-04-22 12:59 | 28.50974 | -49.70170 | 45049 ft | 421 kts | 237° |
| 2026-04-22 12:59 | 28.47479 | -49.75541 | 45064 ft | 423 kts | 237° |
| 2026-04-22 13:00 | 28.43979 | -49.80909 | 45066 ft | 422 kts | 237° |
| 2026-04-22 13:00 | 28.40487 | -49.86264 | 45066 ft | 421 kts | 237° |
| 2026-04-22 13:01 | 28.36999 | -49.91605 | 45050 ft | 421 kts | 237° |
| 2026-04-22 13:01 | 28.33515 | -49.96932 | 45050 ft | 424 kts | 237° |
| 2026-04-22 13:02 | 28.29999 | -50.02298 | 45061 ft | 422 kts | 237° |
| 2026-04-22 13:02 | 28.26509 | -50.07624 | 45059 ft | 420 kts | 237° |
| 2026-04-22 13:03 | 28.23036 | -50.12915 | 45048 ft | 421 kts | 237° |
| 2026-04-22 13:03 | 28.19527 | -50.18252 | 45047 ft | 423 kts | 237° |
| 2026-04-22 13:04 | 28.15997 | -50.23614 | 45057 ft | 422 kts | 237° |
| 2026-04-22 13:04 | 28.12488 | -50.28941 | 45057 ft | 420 kts | 237° |
| 2026-04-22 13:05 | 28.09011 | -50.34211 | 45038 ft | 420 kts | 237° |
| 2026-04-22 13:05 | 28.05503 | -50.39522 | 45047 ft | 422 kts | 236° |
| 2026-04-22 13:06 | 28.01967 | -50.44869 | 45059 ft | 423 kts | 236° |
| 2026-04-22 13:06 | 27.98440 | -50.50193 | 45060 ft | 422 kts | 236° |
| 2026-04-22 13:07 | 27.94920 | -50.55504 | 45059 ft | 421 kts | 236° |
| 2026-04-22 13:07 | 27.91426 | -50.60768 | 45046 ft | 421 kts | 236° |
| 2026-04-22 13:08 | 27.87893 | -50.66083 | 45064 ft | 423 kts | 236° |
| 2026-04-22 13:08 | 27.84362 | -50.71389 | 45066 ft | 421 kts | 236° |
| 2026-04-22 13:09 | 27.80846 | -50.76666 | 45064 ft | 420 kts | 236° |
| 2026-04-22 13:09 | 27.77333 | -50.81931 | 45049 ft | 420 kts | 236° |
| 2026-04-22 13:10 | 27.73801 | -50.87219 | 45049 ft | 422 kts | 236° |
| 2026-04-22 13:10 | 27.70280 | -50.92485 | 45058 ft | 423 kts | 236° |
| 2026-04-22 13:11 | 27.66737 | -50.97777 | 45057 ft | 422 kts | 236° |
| 2026-04-22 13:11 | 27.63197 | -51.03058 | 45040 ft | 422 kts | 236° |
| 2026-04-22 13:12 | 27.59641 | -51.08356 | 45052 ft | 424 kts | 236° |
| 2026-04-22 13:12 | 27.56096 | -51.13632 | 45054 ft | 426 kts | 236° |
| 2026-04-22 13:13 | 27.52510 | -51.18963 | 45057 ft | 426 kts | 236° |
| 2026-04-22 13:13 | 27.48931 | -51.24275 | 45055 ft | 424 kts | 236° |
| 2026-04-22 13:14 | 27.45363 | -51.29565 | 45053 ft | 424 kts | 236° |
| 2026-04-22 13:14 | 27.41785 | -51.34865 | 45057 ft | 425 kts | 236° |
| 2026-04-22 13:15 | 27.38229 | -51.40124 | 45054 ft | 423 kts | 236° |
| 2026-04-22 13:15 | 27.34667 | -51.45385 | 45054 ft | 422 kts | 236° |
| 2026-04-22 13:16 | 27.31101 | -51.50648 | 45053 ft | 423 kts | 236° |
| 2026-04-22 13:16 | 27.27526 | -51.55918 | 45054 ft | 425 kts | 236° |
| 2026-04-22 13:17 | 27.23940 | -51.61197 | 45064 ft | 424 kts | 236° |
| 2026-04-22 13:17 | 27.20390 | -51.66416 | 45062 ft | 422 kts | 236° |
| 2026-04-22 13:18 | 27.16831 | -51.71645 | 45055 ft | 421 kts | 236° |
| 2026-04-22 13:18 | 27.13262 | -51.76880 | 45052 ft | 423 kts | 236° |
| 2026-04-22 13:19 | 27.09675 | -51.82137 | 45058 ft | 425 kts | 235° |
| 2026-04-22 13:19 | 27.06078 | -51.87395 | 45056 ft | 423 kts | 235° |
| 2026-04-22 13:20 | 27.02506 | -51.92620 | 45058 ft | 421 kts | 235° |
| 2026-04-22 13:20 | 26.98964 | -51.97791 | 45044 ft | 421 kts | 235° |
| 2026-04-22 13:21 | 26.95381 | -52.03016 | 45052 ft | 423 kts | 235° |
| 2026-04-22 13:21 | 26.91791 | -52.08245 | 45061 ft | 423 kts | 235° |
| 2026-04-22 13:22 | 26.88206 | -52.13460 | 45062 ft | 421 kts | 235° |
| 2026-04-22 13:22 | 26.84656 | -52.18619 | 45060 ft | 420 kts | 235° |
| 2026-04-22 13:23 | 26.81089 | -52.23797 | 45052 ft | 421 kts | 235° |
| 2026-04-22 13:23 | 26.77502 | -52.28998 | 45061 ft | 423 kts | 235° |
| 2026-04-22 13:24 | 26.73900 | -52.34213 | 45063 ft | 424 kts | 235° |
| 2026-04-22 13:24 | 26.70291 | -52.39434 | 45065 ft | 424 kts | 235° |
| 2026-04-22 13:25 | 26.66703 | -52.44617 | 45066 ft | 424 kts | 235° |
| 2026-04-22 13:25 | 26.63089 | -52.49834 | 45052 ft | 425 kts | 235° |
| 2026-04-22 13:26 | 26.59457 | -52.55069 | 45072 ft | 425 kts | 235° |
| 2026-04-22 13:26 | 26.55844 | -52.60271 | 45067 ft | 422 kts | 235° |
| 2026-04-22 13:27 | 26.52270 | -52.65410 | 45063 ft | 422 kts | 235° |
| 2026-04-22 13:27 | 26.48661 | -52.70593 | 45051 ft | 422 kts | 235° |
| 2026-04-22 13:28 | 26.45047 | -52.75781 | 45055 ft | 424 kts | 235° |
| 2026-04-22 13:28 | 26.41417 | -52.80981 | 45068 ft | 424 kts | 234° |
| 2026-04-22 13:29 | 26.37795 | -52.86167 | 45070 ft | 424 kts | 234° |
| 2026-04-22 13:29 | 26.34176 | -52.91341 | 45061 ft | 423 kts | 234° |
| 2026-04-22 13:30 | 26.30558 | -52.96509 | 45052 ft | 422 kts | 234° |
| 2026-04-22 13:30 | 26.26957 | -53.01647 | 45058 ft | 420 kts | 234° |
| 2026-04-22 13:31 | 26.23349 | -53.06787 | 45057 ft | 421 kts | 234° |
| 2026-04-22 13:31 | 26.19753 | -53.11907 | 45059 ft | 423 kts | 234° |
| 2026-04-22 13:32 | 26.16119 | -53.17073 | 45059 ft | 424 kts | 234° |
| 2026-04-22 13:32 | 26.12485 | -53.22235 | 45054 ft | 423 kts | 234° |
| 2026-04-22 13:33 | 26.08838 | -53.27409 | 45059 ft | 423 kts | 234° |
| 2026-04-22 13:33 | 26.05201 | -53.32565 | 45056 ft | 424 kts | 234° |
| 2026-04-22 13:34 | 26.01578 | -53.37691 | 45056 ft | 425 kts | 234° |
| 2026-04-22 13:34 | 25.97918 | -53.42867 | 45059 ft | 425 kts | 234° |
| 2026-04-22 13:35 | 25.94256 | -53.48037 | 45059 ft | 424 kts | 234° |
| 2026-04-22 13:35 | 25.90601 | -53.53192 | 45059 ft | 424 kts | 234° |
| 2026-04-22 13:36 | 25.86979 | -53.58296 | 45054 ft | 423 kts | 234° |
| 2026-04-22 13:36 | 25.83333 | -53.63428 | 45053 ft | 423 kts | 234° |
| 2026-04-22 13:37 | 25.79692 | -53.68548 | 45048 ft | 422 kts | 234° |
| 2026-04-22 13:37 | 25.76048 | -53.73666 | 45057 ft | 423 kts | 234° |
| 2026-04-22 13:38 | 25.72380 | -53.78812 | 45065 ft | 425 kts | 234° |
| 2026-04-22 13:38 | 25.66894 | -53.86496 | 45067 ft | 426 kts | 234° |
| 2026-04-22 13:39 | 25.63207 | -53.91655 | 45071 ft | 426 kts | 234° |
| 2026-04-22 13:39 | 25.59518 | -53.96812 | 45069 ft | 427 kts | 234° |
| 2026-04-22 13:40 | 25.55828 | -54.01962 | 45070 ft | 426 kts | 234° |
| 2026-04-22 13:40 | 25.52139 | -54.07106 | 45067 ft | 426 kts | 234° |
| 2026-04-22 13:41 | 25.49077 | -54.11371 | 45069 ft | 425 kts | 234° |
| 2026-04-22 13:41 | 25.45396 | -54.16492 | 45062 ft | 425 kts | 234° |
| 2026-04-22 13:42 | 25.41708 | -54.21619 | 45055 ft | 425 kts | 234° |
| 2026-04-22 13:42 | 25.38037 | -54.26717 | 45061 ft | 426 kts | 234° |
| 2026-04-22 13:43 | 25.34323 | -54.31867 | 45062 ft | 428 kts | 234° |
| 2026-04-22 13:43 | 25.30603 | -54.37021 | 45061 ft | 428 kts | 234° |
| 2026-04-22 13:44 | 25.26914 | -54.42126 | 45064 ft | 427 kts | 234° |
| 2026-04-22 13:44 | 25.23204 | -54.47256 | 45055 ft | 427 kts | 234° |
| 2026-04-22 13:45 | 25.19502 | -54.52369 | 45066 ft | 429 kts | 234° |
| 2026-04-22 13:45 | 25.15779 | -54.57505 | 45061 ft | 428 kts | 234° |
| 2026-04-22 13:46 | 25.12061 | -54.62629 | 45069 ft | 427 kts | 234° |
| 2026-04-22 13:46 | 25.08338 | -54.67753 | 45065 ft | 426 kts | 234° |
| 2026-04-22 13:47 | 25.04626 | -54.72858 | 45059 ft | 427 kts | 234° |
| 2026-04-22 13:47 | 25.01521 | -54.77122 | 45075 ft | 428 kts | 234° |